sensor_id;sensor_type;location;lat;lon;timestamp;temperature;humidity
7512;DHT22;9999;48.780;9.146;2022-11-15T00:00:37;9.40;99.90
7512;DHT22;9999;48.780;9.146;2022-11-15T00:03:24;9.30;99.90
7512;DHT22;9999;48.780;9.146;2022-11-15T00:06:11;9.30;99.90
7512;DHT22;9999;48.780;9.146;2022-11-15T00:08:58;9.40;99.90
7512;DHT22;9999;48.780;9.146;2022-11-15T00:11:43;9.30;99.90
7512;DHT22;9999;48.780;9.146;2022-11-15T00:14:29;9.30;99.90
7512;DHT22;9999;48.780;9.146;2022-11-15T00:17:14;9.40;99.90
7512;DHT22;9999;48.780;9.146;2022-11-15T00:20:00;9.40;99.90
7512;DHT22;9999;48.780;9.146;2022-11-15T00:22:47;9.40;99.90
7512;DHT22;9999;48.780;9.146;2022-11-15T00:25:33;9.40;99.90
7512;DHT22;9999;48.780;9.146;2022-11-15T00:28:18;9.40;99.90
7512;DHT22;9999;48.780;9.146;2022-11-15T00:31:06;9.50;99.90
7512;DHT22;9999;48.780;9.146;2022-11-15T00:33:52;9.70;99.90
7512;DHT22;9999;48.780;9.146;2022-11-15T00:36:38;9.80;99.90
7512;DHT22;9999;48.780;9.146;2022-11-15T00:39:25;9.70;99.90
7512;DHT22;9999;48.780;9.146;2022-11-15T00:42:10;9.70;99.90
7512;DHT22;9999;48.780;9.146;2022-11-15T00:44:56;9.70;99.90
7512;DHT22;9999;48.780;9.146;2022-11-15T00:47:44;9.80;99.90
7512;DHT22;9999;48.780;9.146;2022-11-15T00:50:30;9.80;99.90
7512;DHT22;9999;48.780;9.146;2022-11-15T00:53:15;9.80;99.90
7512;DHT22;9999;48.780;9.146;2022-11-15T00:56:03;9.70;99.90
7512;DHT22;9999;48.780;9.146;2022-11-15T00:58:48;9.60;99.90
7512;DHT22;9999;48.780;9.146;2022-11-15T01:01:34;9.60;99.90
7512;DHT22;9999;48.780;9.146;2022-11-15T01:04:19;9.60;99.90
7512;DHT22;9999;48.780;9.146;2022-11-15T01:07:05;9.50;99.90
7512;DHT22;9999;48.780;9.146;2022-11-15T01:09:50;9.50;99.90
7512;DHT22;9999;48.780;9.146;2022-11-15T01:12:37;9.50;99.90
7512;DHT22;9999;48.780;9.146;2022-11-15T01:15:22;9.50;99.90
7512;DHT22;9999;48.780;9.146;2022-11-15T01:18:08;9.50;99.90
7512;DHT22;9999;48.780;9.146;2022-11-15T01:20:54;9.50;99.90
7512;DHT22;9999;48.780;9.146;2022-11-15T01:23:40;9.50;99.90
7512;DHT22;9999;48.780;9.146;2022-11-15T01:26:25;9.30;99.90
7512;DHT22;9999;48.780;9.146;2022-11-15T01:29:12;9.20;99.90
7512;DHT22;9999;48.780;9.146;2022-11-15T01:31:58;9.10;99.90
7512;DHT22;9999;48.780;9.146;2022-11-15T01:34:43;9.00;99.90
7512;DHT22;9999;48.780;9.146;2022-11-15T01:37:29;8.90;99.90
7512;DHT22;9999;48.780;9.146;2022-11-15T01:40:14;8.80;99.90
7512;DHT22;9999;48.780;9.146;2022-11-15T01:43:22;8.80;99.90
7512;DHT22;9999;48.780;9.146;2022-11-15T01:46:21;8.80;99.90
7512;DHT22;9999;48.780;9.146;2022-11-15T01:49:13;8.70;99.90
7512;DHT22;9999;48.780;9.146;2022-11-15T01:52:02;8.80;99.90
7512;DHT22;9999;48.780;9.146;2022-11-15T01:54:52;8.80;99.90
7512;DHT22;9999;48.780;9.146;2022-11-15T01:57:40;8.90;99.90
7512;DHT22;9999;48.780;9.146;2022-11-15T02:00:29;8.80;99.90
7512;DHT22;9999;48.780;9.146;2022-11-15T02:03:17;8.80;99.90
7512;DHT22;9999;48.780;9.146;2022-11-15T02:06:03;8.80;99.90
7512;DHT22;9999;48.780;9.146;2022-11-15T02:08:50;8.80;99.90
7512;DHT22;9999;48.780;9.146;2022-11-15T02:11:36;8.80;99.90
7512;DHT22;9999;48.780;9.146;2022-11-15T02:14:23;8.80;99.90
7512;DHT22;9999;48.780;9.146;2022-11-15T02:17:25;8.80;99.90
7512;DHT22;9999;48.780;9.146;2022-11-15T02:27:05;8.50;99.90
7512;DHT22;9999;48.780;9.146;2022-11-15T02:30:13;8.40;99.90
7512;DHT22;9999;48.780;9.146;2022-11-15T02:33:03;8.40;99.90
7512;DHT22;9999;48.780;9.146;2022-11-15T02:35:57;8.50;99.90
7512;DHT22;9999;48.780;9.146;2022-11-15T02:38:50;8.50;99.90
7512;DHT22;9999;48.780;9.146;2022-11-15T02:41:44;8.50;99.90
7512;DHT22;9999;48.780;9.146;2022-11-15T02:44:35;8.40;99.90
7512;DHT22;9999;48.780;9.146;2022-11-15T02:47:24;8.50;99.90
7512;DHT22;9999;48.780;9.146;2022-11-15T02:50:14;8.50;99.90
7512;DHT22;9999;48.780;9.146;2022-11-15T02:53:01;8.50;99.90
7512;DHT22;9999;48.780;9.146;2022-11-15T02:55:49;8.40;99.90
7512;DHT22;9999;48.780;9.146;2022-11-15T02:58:58;8.40;99.90
7512;DHT22;9999;48.780;9.146;2022-11-15T03:01:55;8.50;99.90
7512;DHT22;9999;48.780;9.146;2022-11-15T03:04:52;8.40;99.90
7512;DHT22;9999;48.780;9.146;2022-11-15T03:07:43;8.50;99.90
7512;DHT22;9999;48.780;9.146;2022-11-15T03:10:36;8.50;99.90
7512;DHT22;9999;48.780;9.146;2022-11-15T03:13:27;8.40;99.90
7512;DHT22;9999;48.780;9.146;2022-11-15T03:16:18;8.30;99.90
7512;DHT22;9999;48.780;9.146;2022-11-15T03:19:08;8.30;99.90
7512;DHT22;9999;48.780;9.146;2022-11-15T03:21:58;8.30;99.90
7512;DHT22;9999;48.780;9.146;2022-11-15T03:24:46;8.30;99.90
7512;DHT22;9999;48.780;9.146;2022-11-15T03:27:35;8.30;99.90
7512;DHT22;9999;48.780;9.146;2022-11-15T03:30:22;8.30;99.90
7512;DHT22;9999;48.780;9.146;2022-11-15T03:33:09;8.40;99.90
7512;DHT22;9999;48.780;9.146;2022-11-15T03:35:56;8.30;99.90
7512;DHT22;9999;48.780;9.146;2022-11-15T03:38:43;8.50;99.90
7512;DHT22;9999;48.780;9.146;2022-11-15T03:41:35;8.50;99.90
7512;DHT22;9999;48.780;9.146;2022-11-15T03:44:31;8.50;99.90
7512;DHT22;9999;48.780;9.146;2022-11-15T03:47:23;8.30;99.90
7512;DHT22;9999;48.780;9.146;2022-11-15T03:50:12;8.30;99.90
7512;DHT22;9999;48.780;9.146;2022-11-15T03:52:58;8.30;99.90
7512;DHT22;9999;48.780;9.146;2022-11-15T03:55:45;8.30;99.90
7512;DHT22;9999;48.780;9.146;2022-11-15T03:58:31;8.40;99.90
7512;DHT22;9999;48.780;9.146;2022-11-15T04:01:16;8.40;99.90
7512;DHT22;9999;48.780;9.146;2022-11-15T04:04:02;8.40;99.90
7512;DHT22;9999;48.780;9.146;2022-11-15T04:06:47;8.40;99.90
7512;DHT22;9999;48.780;9.146;2022-11-15T04:09:33;8.40;99.90
7512;DHT22;9999;48.780;9.146;2022-11-15T04:12:43;8.40;99.90
7512;DHT22;9999;48.780;9.146;2022-11-15T04:15:30;8.50;99.90
7512;DHT22;9999;48.780;9.146;2022-11-15T04:18:15;8.50;99.90
7512;DHT22;9999;48.780;9.146;2022-11-15T04:21:01;8.50;99.90
7512;DHT22;9999;48.780;9.146;2022-11-15T04:24:05;8.50;99.90
7512;DHT22;9999;48.780;9.146;2022-11-15T04:26:59;8.50;99.90
7512;DHT22;9999;48.780;9.146;2022-11-15T04:29:46;8.50;99.90
7512;DHT22;9999;48.780;9.146;2022-11-15T04:32:32;8.40;99.90
7512;DHT22;9999;48.780;9.146;2022-11-15T04:35:17;8.40;99.90
7512;DHT22;9999;48.780;9.146;2022-11-15T04:38:05;8.50;99.90
7512;DHT22;9999;48.780;9.146;2022-11-15T04:40:49;8.60;99.90
7512;DHT22;9999;48.780;9.146;2022-11-15T04:43:35;8.60;99.90
7512;DHT22;9999;48.780;9.146;2022-11-15T04:46:22;8.60;99.90
7512;DHT22;9999;48.780;9.146;2022-11-15T04:49:09;8.50;99.90
7512;DHT22;9999;48.780;9.146;2022-11-15T04:51:54;8.50;99.90
7512;DHT22;9999;48.780;9.146;2022-11-15T04:54:40;8.40;99.90
7512;DHT22;9999;48.780;9.146;2022-11-15T04:57:26;8.40;99.90
7512;DHT22;9999;48.780;9.146;2022-11-15T05:00:14;8.40;99.90
7512;DHT22;9999;48.780;9.146;2022-11-15T05:03:01;8.40;99.90
7512;DHT22;9999;48.780;9.146;2022-11-15T05:06:05;8.40;99.90
7512;DHT22;9999;48.780;9.146;2022-11-15T05:08:51;8.40;99.90
7512;DHT22;9999;48.780;9.146;2022-11-15T05:11:36;8.40;99.90
7512;DHT22;9999;48.780;9.146;2022-11-15T05:14:22;8.40;99.90
7512;DHT22;9999;48.780;9.146;2022-11-15T05:17:08;8.40;99.90
7512;DHT22;9999;48.780;9.146;2022-11-15T05:19:55;8.50;99.90
7512;DHT22;9999;48.780;9.146;2022-11-15T05:22:40;8.50;99.90
7512;DHT22;9999;48.780;9.146;2022-11-15T05:25:26;8.40;99.90
7512;DHT22;9999;48.780;9.146;2022-11-15T05:28:12;8.30;99.90
7512;DHT22;9999;48.780;9.146;2022-11-15T05:31:00;8.30;99.90
7512;DHT22;9999;48.780;9.146;2022-11-15T05:33:46;8.30;99.90
7512;DHT22;9999;48.780;9.146;2022-11-15T05:36:35;8.40;99.90
7512;DHT22;9999;48.780;9.146;2022-11-15T05:39:22;8.40;99.90
7512;DHT22;9999;48.780;9.146;2022-11-15T05:42:11;8.40;99.90
7512;DHT22;9999;48.780;9.146;2022-11-15T05:44:58;8.50;99.90
7512;DHT22;9999;48.780;9.146;2022-11-15T05:47:43;8.50;99.90
7512;DHT22;9999;48.780;9.146;2022-11-15T05:50:29;8.50;99.90
7512;DHT22;9999;48.780;9.146;2022-11-15T05:53:18;8.50;99.90
7512;DHT22;9999;48.780;9.146;2022-11-15T05:56:05;8.50;99.90
7512;DHT22;9999;48.780;9.146;2022-11-15T05:58:52;8.50;99.90
7512;DHT22;9999;48.780;9.146;2022-11-15T06:01:38;8.50;99.90
7512;DHT22;9999;48.780;9.146;2022-11-15T06:04:24;8.60;99.90
7512;DHT22;9999;48.780;9.146;2022-11-15T06:07:10;8.60;99.90
7512;DHT22;9999;48.780;9.146;2022-11-15T06:09:57;8.60;99.90
7512;DHT22;9999;48.780;9.146;2022-11-15T06:12:42;8.60;99.90
7512;DHT22;9999;48.780;9.146;2022-11-15T06:15:28;8.70;99.90
7512;DHT22;9999;48.780;9.146;2022-11-15T06:18:13;8.70;99.90
7512;DHT22;9999;48.780;9.146;2022-11-15T06:20:59;8.70;99.90
7512;DHT22;9999;48.780;9.146;2022-11-15T06:23:45;8.70;99.90
7512;DHT22;9999;48.780;9.146;2022-11-15T06:26:32;8.60;99.90
7512;DHT22;9999;48.780;9.146;2022-11-15T06:29:17;8.50;99.90
7512;DHT22;9999;48.780;9.146;2022-11-15T06:32:04;8.50;99.90
7512;DHT22;9999;48.780;9.146;2022-11-15T06:34:49;8.40;99.90
7512;DHT22;9999;48.780;9.146;2022-11-15T06:37:35;8.30;99.90
7512;DHT22;9999;48.780;9.146;2022-11-15T06:40:21;8.30;99.90
7512;DHT22;9999;48.780;9.146;2022-11-15T06:43:07;8.30;99.90
7512;DHT22;9999;48.780;9.146;2022-11-15T06:45:53;8.30;99.90
7512;DHT22;9999;48.780;9.146;2022-11-15T06:48:38;8.20;99.90
7512;DHT22;9999;48.780;9.146;2022-11-15T06:51:24;8.30;99.90
7512;DHT22;9999;48.780;9.146;2022-11-15T06:54:09;8.30;99.90
7512;DHT22;9999;48.780;9.146;2022-11-15T06:56:55;8.30;99.90
7512;DHT22;9999;48.780;9.146;2022-11-15T06:59:42;8.30;99.90
7512;DHT22;9999;48.780;9.146;2022-11-15T07:02:27;8.30;99.90
7512;DHT22;9999;48.780;9.146;2022-11-15T07:05:14;8.40;99.90
7512;DHT22;9999;48.780;9.146;2022-11-15T07:08:00;8.40;99.90
7512;DHT22;9999;48.780;9.146;2022-11-15T07:10:45;8.50;99.90
7512;DHT22;9999;48.780;9.146;2022-11-15T07:13:32;8.60;99.90
7512;DHT22;9999;48.780;9.146;2022-11-15T07:16:19;8.70;99.90
7512;DHT22;9999;48.780;9.146;2022-11-15T07:19:04;8.60;99.90
7512;DHT22;9999;48.780;9.146;2022-11-15T07:21:50;8.70;99.90
7512;DHT22;9999;48.780;9.146;2022-11-15T07:24:35;8.80;99.90
7512;DHT22;9999;48.780;9.146;2022-11-15T07:27:21;8.80;99.90
7512;DHT22;9999;48.780;9.146;2022-11-15T07:30:07;8.90;99.90
7512;DHT22;9999;48.780;9.146;2022-11-15T07:32:55;9.00;99.90
7512;DHT22;9999;48.780;9.146;2022-11-15T07:35:40;9.00;99.90
7512;DHT22;9999;48.780;9.146;2022-11-15T07:38:27;9.10;99.90
7512;DHT22;9999;48.780;9.146;2022-11-15T07:41:12;9.20;99.90
7512;DHT22;9999;48.780;9.146;2022-11-15T07:43:58;9.30;99.90
7512;DHT22;9999;48.780;9.146;2022-11-15T07:46:43;9.50;99.90
7512;DHT22;9999;48.780;9.146;2022-11-15T07:49:30;9.70;99.90
7512;DHT22;9999;48.780;9.146;2022-11-15T07:52:16;9.70;99.90
7512;DHT22;9999;48.780;9.146;2022-11-15T07:55:02;9.80;99.90
7512;DHT22;9999;48.780;9.146;2022-11-15T07:57:47;9.90;99.90
7512;DHT22;9999;48.780;9.146;2022-11-15T08:00:33;10.00;99.90
7512;DHT22;9999;48.780;9.146;2022-11-15T08:03:19;10.00;99.90
7512;DHT22;9999;48.780;9.146;2022-11-15T08:06:06;10.10;99.90
7512;DHT22;9999;48.780;9.146;2022-11-15T08:08:51;10.20;99.90
7512;DHT22;9999;48.780;9.146;2022-11-15T08:11:37;10.30;99.90
7512;DHT22;9999;48.780;9.146;2022-11-15T08:14:23;10.30;99.90
7512;DHT22;9999;48.780;9.146;2022-11-15T08:17:09;10.40;99.90
7512;DHT22;9999;48.780;9.146;2022-11-15T08:19:54;10.50;99.90
7512;DHT22;9999;48.780;9.146;2022-11-15T08:22:41;10.50;99.90
7512;DHT22;9999;48.780;9.146;2022-11-15T08:25:28;10.50;99.90
7512;DHT22;9999;48.780;9.146;2022-11-15T08:28:16;10.70;99.90
7512;DHT22;9999;48.780;9.146;2022-11-15T08:31:03;10.50;99.90
7512;DHT22;9999;48.780;9.146;2022-11-15T08:33:48;10.60;99.90
7512;DHT22;9999;48.780;9.146;2022-11-15T08:36:34;10.60;99.90
7512;DHT22;9999;48.780;9.146;2022-11-15T08:39:21;10.50;99.90
7512;DHT22;9999;48.780;9.146;2022-11-15T08:42:06;10.50;99.90
7512;DHT22;9999;48.780;9.146;2022-11-15T08:44:52;10.50;99.90
7512;DHT22;9999;48.780;9.146;2022-11-15T08:47:37;10.60;99.90
7512;DHT22;9999;48.780;9.146;2022-11-15T08:50:23;10.70;99.90
7512;DHT22;9999;48.780;9.146;2022-11-15T08:53:09;10.70;99.90
7512;DHT22;9999;48.780;9.146;2022-11-15T08:55:56;10.90;99.90
7512;DHT22;9999;48.780;9.146;2022-11-15T08:58:42;10.90;99.90
7512;DHT22;9999;48.780;9.146;2022-11-15T09:01:27;11.00;99.90
7512;DHT22;9999;48.780;9.146;2022-11-15T09:04:13;11.20;99.90
7512;DHT22;9999;48.780;9.146;2022-11-15T09:06:58;11.40;99.90
7512;DHT22;9999;48.780;9.146;2022-11-15T09:09:44;11.50;99.90
7512;DHT22;9999;48.780;9.146;2022-11-15T09:12:31;11.60;99.90
7512;DHT22;9999;48.780;9.146;2022-11-15T09:15:17;11.70;99.90
7512;DHT22;9999;48.780;9.146;2022-11-15T09:18:03;11.70;99.90
7512;DHT22;9999;48.780;9.146;2022-11-15T09:20:49;11.90;99.90
7512;DHT22;9999;48.780;9.146;2022-11-15T09:23:34;12.00;99.90
7512;DHT22;9999;48.780;9.146;2022-11-15T09:26:20;12.00;99.90
7512;DHT22;9999;48.780;9.146;2022-11-15T09:29:07;12.20;99.90
7512;DHT22;9999;48.780;9.146;2022-11-15T09:31:52;12.20;99.90
7512;DHT22;9999;48.780;9.146;2022-11-15T09:34:38;12.20;99.90
7512;DHT22;9999;48.780;9.146;2022-11-15T09:37:24;12.30;99.90
7512;DHT22;9999;48.780;9.146;2022-11-15T09:40:11;12.50;99.90
7512;DHT22;9999;48.780;9.146;2022-11-15T09:43:10;12.60;99.90
7512;DHT22;9999;48.780;9.146;2022-11-15T09:46:10;12.60;99.90
7512;DHT22;9999;48.780;9.146;2022-11-15T09:49:19;12.70;99.90
7512;DHT22;9999;48.780;9.146;2022-11-15T09:52:07;12.80;99.90
7512;DHT22;9999;48.780;9.146;2022-11-15T09:54:37;13.00;99.90
7512;DHT22;9999;48.780;9.146;2022-11-15T09:57:09;13.00;99.90
7512;DHT22;9999;48.780;9.146;2022-11-15T09:59:50;13.20;99.90
7512;DHT22;9999;48.780;9.146;2022-11-15T10:02:33;13.30;99.90
7512;DHT22;9999;48.780;9.146;2022-11-15T10:05:03;13.30;99.90
7512;DHT22;9999;48.780;9.146;2022-11-15T10:07:36;13.30;99.90
7512;DHT22;9999;48.780;9.146;2022-11-15T10:10:12;13.40;99.90
7512;DHT22;9999;48.780;9.146;2022-11-15T10:12:44;13.40;99.90
7512;DHT22;9999;48.780;9.146;2022-11-15T10:15:15;13.20;99.90
7512;DHT22;9999;48.780;9.146;2022-11-15T10:18:08;13.20;99.90
7512;DHT22;9999;48.780;9.146;2022-11-15T10:20:44;13.20;99.90
7512;DHT22;9999;48.780;9.146;2022-11-15T10:23:15;13.10;99.90
7512;DHT22;9999;48.780;9.146;2022-11-15T10:25:42;13.20;99.90
7512;DHT22;9999;48.780;9.146;2022-11-15T10:28:14;13.10;99.90
7512;DHT22;9999;48.780;9.146;2022-11-15T10:30:43;13.10;99.90
7512;DHT22;9999;48.780;9.146;2022-11-15T10:33:29;13.10;99.90
7512;DHT22;9999;48.780;9.146;2022-11-15T10:36:15;13.00;99.90
7512;DHT22;9999;48.780;9.146;2022-11-15T10:38:56;13.10;99.90
7512;DHT22;9999;48.780;9.146;2022-11-15T10:41:37;13.10;99.90
7512;DHT22;9999;48.780;9.146;2022-11-15T10:44:18;13.10;99.90
7512;DHT22;9999;48.780;9.146;2022-11-15T10:46:47;13.20;99.90
7512;DHT22;9999;48.780;9.146;2022-11-15T10:49:18;13.20;99.90
7512;DHT22;9999;48.780;9.146;2022-11-15T10:51:48;13.20;99.90
7512;DHT22;9999;48.780;9.146;2022-11-15T10:54:22;13.20;99.90
7512;DHT22;9999;48.780;9.146;2022-11-15T10:56:51;13.20;99.90
7512;DHT22;9999;48.780;9.146;2022-11-15T10:59:23;13.20;99.90
7512;DHT22;9999;48.780;9.146;2022-11-15T11:01:50;13.20;99.90
7512;DHT22;9999;48.780;9.146;2022-11-15T11:04:19;13.20;99.90
7512;DHT22;9999;48.780;9.146;2022-11-15T11:06:46;13.10;99.90
7512;DHT22;9999;48.780;9.146;2022-11-15T11:09:28;13.10;99.90
7512;DHT22;9999;48.780;9.146;2022-11-15T11:11:55;13.10;99.90
7512;DHT22;9999;48.780;9.146;2022-11-15T11:14:24;13.20;99.90
7512;DHT22;9999;48.780;9.146;2022-11-15T11:16:55;13.20;99.90
7512;DHT22;9999;48.780;9.146;2022-11-15T11:19:41;13.20;99.90
7512;DHT22;9999;48.780;9.146;2022-11-15T11:22:18;13.20;99.90
7512;DHT22;9999;48.780;9.146;2022-11-15T11:24:53;13.20;99.90
7512;DHT22;9999;48.780;9.146;2022-11-15T11:27:31;13.10;99.90
7512;DHT22;9999;48.780;9.146;2022-11-15T11:30:06;13.00;99.90
7512;DHT22;9999;48.780;9.146;2022-11-15T11:32:46;13.00;99.90
7512;DHT22;9999;48.780;9.146;2022-11-15T11:35:20;13.10;99.90
7512;DHT22;9999;48.780;9.146;2022-11-15T11:37:51;13.10;99.90
7512;DHT22;9999;48.780;9.146;2022-11-15T11:40:29;13.20;99.90
7512;DHT22;9999;48.780;9.146;2022-11-15T11:43:02;13.30;99.90
7512;DHT22;9999;48.780;9.146;2022-11-15T11:45:59;13.40;99.90
7512;DHT22;9999;48.780;9.146;2022-11-15T11:48:40;13.40;99.90
7512;DHT22;9999;48.780;9.146;2022-11-15T11:51:14;13.50;99.90
7512;DHT22;9999;48.780;9.146;2022-11-15T11:53:48;13.50;99.90
7512;DHT22;9999;48.780;9.146;2022-11-15T11:56:23;13.60;99.90
7512;DHT22;9999;48.780;9.146;2022-11-15T11:58:52;13.60;99.90
7512;DHT22;9999;48.780;9.146;2022-11-15T12:01:23;13.70;99.90
7512;DHT22;9999;48.780;9.146;2022-11-15T12:03:54;13.70;99.90
7512;DHT22;9999;48.780;9.146;2022-11-15T12:06:29;13.80;99.90
7512;DHT22;9999;48.780;9.146;2022-11-15T12:09:02;13.80;99.90
7512;DHT22;9999;48.780;9.146;2022-11-15T12:11:36;13.90;99.90
7512;DHT22;9999;48.780;9.146;2022-11-15T12:14:11;14.00;99.90
7512;DHT22;9999;48.780;9.146;2022-11-15T12:16:42;14.00;99.90
7512;DHT22;9999;48.780;9.146;2022-11-15T12:19:09;14.00;99.90
7512;DHT22;9999;48.780;9.146;2022-11-15T12:21:43;13.90;99.90
7512;DHT22;9999;48.780;9.146;2022-11-15T12:24:15;13.80;99.90
7512;DHT22;9999;48.780;9.146;2022-11-15T12:26:49;13.80;99.90
7512;DHT22;9999;48.780;9.146;2022-11-15T12:29:20;13.90;99.90
7512;DHT22;9999;48.780;9.146;2022-11-15T12:31:52;13.90;99.90
7512;DHT22;9999;48.780;9.146;2022-11-15T12:34:46;13.90;99.90
7512;DHT22;9999;48.780;9.146;2022-11-15T12:37:34;13.90;99.90
7512;DHT22;9999;48.780;9.146;2022-11-15T12:40:30;13.90;99.90
7512;DHT22;9999;48.780;9.146;2022-11-15T12:45:52;13.80;99.90
7512;DHT22;9999;48.780;9.146;2022-11-15T12:48:48;13.70;99.90
7512;DHT22;9999;48.780;9.146;2022-11-15T12:51:16;13.70;99.90
7512;DHT22;9999;48.780;9.146;2022-11-15T12:53:44;13.70;99.90
7512;DHT22;9999;48.780;9.146;2022-11-15T12:56:22;13.70;99.90
7512;DHT22;9999;48.780;9.146;2022-11-15T12:58:54;13.60;99.90
7512;DHT22;9999;48.780;9.146;2022-11-15T13:01:57;13.60;99.90
7512;DHT22;9999;48.780;9.146;2022-11-15T13:04:29;13.50;99.90
7512;DHT22;9999;48.780;9.146;2022-11-15T13:06:59;13.50;99.90
7512;DHT22;9999;48.780;9.146;2022-11-15T13:09:53;13.50;99.90
7512;DHT22;9999;48.780;9.146;2022-11-15T13:12:49;13.50;99.90
7512;DHT22;9999;48.780;9.146;2022-11-15T13:15:37;13.50;99.90
7512;DHT22;9999;48.780;9.146;2022-11-15T13:18:34;13.40;99.90
7512;DHT22;9999;48.780;9.146;2022-11-15T13:21:03;13.30;99.90
7512;DHT22;9999;48.780;9.146;2022-11-15T13:23:53;13.40;99.90
7512;DHT22;9999;48.780;9.146;2022-11-15T13:26:22;13.30;99.90
7512;DHT22;9999;48.780;9.146;2022-11-15T13:28:51;13.40;99.90
7512;DHT22;9999;48.780;9.146;2022-11-15T13:31:27;13.40;99.90
7512;DHT22;9999;48.780;9.146;2022-11-15T13:33:57;13.30;99.90
7512;DHT22;9999;48.780;9.146;2022-11-15T13:36:27;13.30;99.90
7512;DHT22;9999;48.780;9.146;2022-11-15T13:38:57;13.30;99.90
7512;DHT22;9999;48.780;9.146;2022-11-15T13:41:27;13.40;99.90
7512;DHT22;9999;48.780;9.146;2022-11-15T13:43:55;13.30;99.90
7512;DHT22;9999;48.780;9.146;2022-11-15T13:46:24;13.30;99.90
7512;DHT22;9999;48.780;9.146;2022-11-15T13:48:53;13.30;99.90
7512;DHT22;9999;48.780;9.146;2022-11-15T13:51:27;13.30;99.90
7512;DHT22;9999;48.780;9.146;2022-11-15T13:53:57;13.40;99.90
7512;DHT22;9999;48.780;9.146;2022-11-15T13:56:27;13.30;99.90
7512;DHT22;9999;48.780;9.146;2022-11-15T13:58:56;13.30;99.90
7512;DHT22;9999;48.780;9.146;2022-11-15T14:01:23;13.40;99.90
7512;DHT22;9999;48.780;9.146;2022-11-15T14:03:55;13.20;99.90
7512;DHT22;9999;48.780;9.146;2022-11-15T14:06:24;13.20;99.90
7512;DHT22;9999;48.780;9.146;2022-11-15T14:09:02;13.20;99.90
7512;DHT22;9999;48.780;9.146;2022-11-15T14:11:30;13.10;99.90
7512;DHT22;9999;48.780;9.146;2022-11-15T14:14:04;13.00;99.90
7512;DHT22;9999;48.780;9.146;2022-11-15T14:16:39;12.90;99.90
7512;DHT22;9999;48.780;9.146;2022-11-15T14:19:10;12.90;99.90
7512;DHT22;9999;48.780;9.146;2022-11-15T14:21:37;12.80;99.90
7512;DHT22;9999;48.780;9.146;2022-11-15T14:24:17;12.80;99.90
7512;DHT22;9999;48.780;9.146;2022-11-15T14:26:46;12.90;99.90
7512;DHT22;9999;48.780;9.146;2022-11-15T14:29:23;12.80;99.90
7512;DHT22;9999;48.780;9.146;2022-11-15T14:31:50;12.70;99.90
7512;DHT22;9999;48.780;9.146;2022-11-15T14:34:16;12.80;99.90
7512;DHT22;9999;48.780;9.146;2022-11-15T14:36:43;12.80;99.90
7512;DHT22;9999;48.780;9.146;2022-11-15T14:39:10;12.80;99.90
7512;DHT22;9999;48.780;9.146;2022-11-15T14:41:37;12.70;99.90
7512;DHT22;9999;48.780;9.146;2022-11-15T14:44:06;12.80;99.90
7512;DHT22;9999;48.780;9.146;2022-11-15T14:46:33;12.80;99.90
7512;DHT22;9999;48.780;9.146;2022-11-15T14:48:59;12.70;99.90
7512;DHT22;9999;48.780;9.146;2022-11-15T14:51:26;12.70;99.90
7512;DHT22;9999;48.780;9.146;2022-11-15T14:53:53;12.60;99.90
7512;DHT22;9999;48.780;9.146;2022-11-15T14:56:20;12.60;99.90
7512;DHT22;9999;48.780;9.146;2022-11-15T14:58:47;12.50;99.90
7512;DHT22;9999;48.780;9.146;2022-11-15T15:01:19;12.50;99.90
7512;DHT22;9999;48.780;9.146;2022-11-15T15:03:46;12.40;99.90
7512;DHT22;9999;48.780;9.146;2022-11-15T15:06:13;12.50;99.90
7512;DHT22;9999;48.780;9.146;2022-11-15T15:08:40;12.50;99.90
7512;DHT22;9999;48.780;9.146;2022-11-15T15:11:11;12.40;99.90
7512;DHT22;9999;48.780;9.146;2022-11-15T15:13:40;12.40;99.90
7512;DHT22;9999;48.780;9.146;2022-11-15T15:16:06;12.20;99.90
7512;DHT22;9999;48.780;9.146;2022-11-15T15:18:35;12.30;99.90
7512;DHT22;9999;48.780;9.146;2022-11-15T15:21:02;12.20;99.90
7512;DHT22;9999;48.780;9.146;2022-11-15T15:23:33;12.20;99.90
7512;DHT22;9999;48.780;9.146;2022-11-15T15:26:01;12.10;99.90
7512;DHT22;9999;48.780;9.146;2022-11-15T15:28:28;12.10;99.90
7512;DHT22;9999;48.780;9.146;2022-11-15T15:30:54;12.10;99.90
7512;DHT22;9999;48.780;9.146;2022-11-15T15:33:21;12.10;99.90
7512;DHT22;9999;48.780;9.146;2022-11-15T15:35:49;12.00;99.90
7512;DHT22;9999;48.780;9.146;2022-11-15T15:38:16;12.00;99.90
7512;DHT22;9999;48.780;9.146;2022-11-15T15:40:43;12.00;99.90
7512;DHT22;9999;48.780;9.146;2022-11-15T15:43:10;11.90;99.90
7512;DHT22;9999;48.780;9.146;2022-11-15T15:45:38;11.90;99.90
7512;DHT22;9999;48.780;9.146;2022-11-15T15:48:05;11.90;99.90
7512;DHT22;9999;48.780;9.146;2022-11-15T15:50:33;11.90;99.90
7512;DHT22;9999;48.780;9.146;2022-11-15T15:53:03;11.90;99.90
7512;DHT22;9999;48.780;9.146;2022-11-15T15:55:30;11.90;99.90
7512;DHT22;9999;48.780;9.146;2022-11-15T15:57:57;11.90;99.90
7512;DHT22;9999;48.780;9.146;2022-11-15T16:00:25;11.90;99.90
7512;DHT22;9999;48.780;9.146;2022-11-15T16:02:52;11.90;99.90
7512;DHT22;9999;48.780;9.146;2022-11-15T16:05:20;11.80;99.90
7512;DHT22;9999;48.780;9.146;2022-11-15T16:07:47;11.80;99.90
7512;DHT22;9999;48.780;9.146;2022-11-15T16:10:20;11.90;99.90
7512;DHT22;9999;48.780;9.146;2022-11-15T16:12:47;11.90;99.90
7512;DHT22;9999;48.780;9.146;2022-11-15T16:15:14;11.90;99.90
7512;DHT22;9999;48.780;9.146;2022-11-15T16:17:48;11.90;99.90
7512;DHT22;9999;48.780;9.146;2022-11-15T16:20:31;11.90;99.90
7512;DHT22;9999;48.780;9.146;2022-11-15T16:22:58;11.80;99.90
7512;DHT22;9999;48.780;9.146;2022-11-15T16:25:27;11.90;99.90
7512;DHT22;9999;48.780;9.146;2022-11-15T16:27:54;12.00;99.90
7512;DHT22;9999;48.780;9.146;2022-11-15T16:30:22;12.00;99.90
7512;DHT22;9999;48.780;9.146;2022-11-15T16:32:49;11.90;99.90
7512;DHT22;9999;48.780;9.146;2022-11-15T16:35:16;11.90;99.90
7512;DHT22;9999;48.780;9.146;2022-11-15T16:37:44;11.90;99.90
7512;DHT22;9999;48.780;9.146;2022-11-15T16:40:28;11.80;99.90
7512;DHT22;9999;48.780;9.146;2022-11-15T16:42:55;11.90;99.90
7512;DHT22;9999;48.780;9.146;2022-11-15T16:45:22;11.90;99.90
7512;DHT22;9999;48.780;9.146;2022-11-15T16:47:49;11.80;99.90
7512;DHT22;9999;48.780;9.146;2022-11-15T16:50:21;11.90;99.90
7512;DHT22;9999;48.780;9.146;2022-11-15T16:52:51;11.90;99.90
7512;DHT22;9999;48.780;9.146;2022-11-15T16:55:18;11.90;99.90
7512;DHT22;9999;48.780;9.146;2022-11-15T16:57:47;11.90;99.90
7512;DHT22;9999;48.780;9.146;2022-11-15T17:02:43;12.00;99.90
7512;DHT22;9999;48.780;9.146;2022-11-15T17:05:10;12.00;99.90
7512;DHT22;9999;48.780;9.146;2022-11-15T17:07:37;12.00;99.90
7512;DHT22;9999;48.780;9.146;2022-11-15T17:10:05;12.00;99.90
7512;DHT22;9999;48.780;9.146;2022-11-15T17:12:33;11.90;99.90
7512;DHT22;9999;48.780;9.146;2022-11-15T17:15:02;11.90;99.90
7512;DHT22;9999;48.780;9.146;2022-11-15T17:17:29;11.90;99.90
7512;DHT22;9999;48.780;9.146;2022-11-15T17:19:56;11.80;99.90
7512;DHT22;9999;48.780;9.146;2022-11-15T17:22:23;11.80;99.90
7512;DHT22;9999;48.780;9.146;2022-11-15T17:24:50;11.70;99.90
7512;DHT22;9999;48.780;9.146;2022-11-15T17:27:17;11.70;99.90
7512;DHT22;9999;48.780;9.146;2022-11-15T17:29:46;11.70;99.90
7512;DHT22;9999;48.780;9.146;2022-11-15T17:32:14;11.80;99.90
7512;DHT22;9999;48.780;9.146;2022-11-15T17:34:41;11.80;99.90
7512;DHT22;9999;48.780;9.146;2022-11-15T17:37:07;11.70;99.90
7512;DHT22;9999;48.780;9.146;2022-11-15T17:39:34;11.80;99.90
7512;DHT22;9999;48.780;9.146;2022-11-15T17:42:01;11.90;99.90
7512;DHT22;9999;48.780;9.146;2022-11-15T17:44:28;11.90;99.90
7512;DHT22;9999;48.780;9.146;2022-11-15T17:46:55;11.80;99.90